sensor_id;sensor_type;location;lat;lon;timestamp;P1;durP1;ratioP1;P2;durP2;ratioP2
53939;SDS011;39850;43.324;21.916;2024-03-06T00:12:25;22.0;;;21.0;;
53939;SDS011;39850;43.324;21.916;2024-03-06T00:17:03;22.0;;;21.0;;
53939;SDS011;39850;43.324;21.916;2024-03-06T00:21:39;23.0;;;22.0;;
53939;SDS011;39850;43.324;21.916;2024-03-06T00:26:16;23.0;;;22.0;;
53939;SDS011;39850;43.324;21.916;2024-03-06T00:30:52;23.0;;;22.0;;
53939;SDS011;39850;43.324;21.916;2024-03-06T00:35:28;23.0;;;22.0;;
53939;SDS011;39850;43.324;21.916;2024-03-06T00:40:08;23.0;;;22.0;;
53939;SDS011;39850;43.324;21.916;2024-03-06T00:44:46;24.0;;;22.0;;
53939;SDS011;39850;43.324;21.916;2024-03-06T00:49:23;24.0;;;22.0;;
53939;SDS011;39850;43.324;21.916;2024-03-06T00:53:59;23.0;;;22.0;;
53939;SDS011;39850;43.324;21.916;2024-03-06T00:58:36;23.0;;;22.0;;
53939;SDS011;39850;43.324;21.916;2024-03-06T01:35:27;22.0;;;19.0;;
53939;SDS011;39850;43.324;21.916;2024-03-06T01:40:08;22.0;;;19.0;;
53939;SDS011;39850;43.324;21.916;2024-03-06T01:44:45;22.0;;;19.0;;
53939;SDS011;39850;43.324;21.916;2024-03-06T01:49:27;22.0;;;19.0;;
53939;SDS011;39850;43.324;21.916;2024-03-06T01:54:06;22.0;;;19.0;;
53939;SDS011;39850;43.324;21.916;2024-03-06T01:58:47;22.0;;;19.0;;
53939;SDS011;39850;43.324;21.916;2024-03-06T02:03:25;22.0;;;20.0;;
53939;SDS011;39850;43.324;21.916;2024-03-06T02:08:07;22.0;;;20.0;;
53939;SDS011;39850;43.324;21.916;2024-03-06T02:12:44;23.0;;;21.0;;
53939;SDS011;39850;43.324;21.916;2024-03-06T02:17:20;23.0;;;21.0;;
53939;SDS011;39850;43.324;21.916;2024-03-06T02:54:11;24.0;;;21.0;;
53939;SDS011;39850;43.324;21.916;2024-03-06T02:58:47;24.0;;;21.0;;
53939;SDS011;39850;43.324;21.916;2024-03-06T03:03:23;23.0;;;20.0;;
53939;SDS011;39850;43.324;21.916;2024-03-06T03:08:00;23.0;;;20.0;;
53939;SDS011;39850;43.324;21.916;2024-03-06T03:12:38;23.0;;;20.0;;
53939;SDS011;39850;43.324;21.916;2024-03-06T03:17:14;23.0;;;20.0;;
53939;SDS011;39850;43.324;21.916;2024-03-06T03:21:51;23.0;;;20.0;;
53939;SDS011;39850;43.324;21.916;2024-03-06T03:26:27;22.0;;;20.0;;
53939;SDS011;39850;43.324;21.916;2024-03-06T03:31:04;22.0;;;20.0;;
53939;SDS011;39850;43.324;21.916;2024-03-06T03:35:40;23.0;;;20.0;;
53939;SDS011;39850;43.324;21.916;2024-03-06T03:40:17;23.0;;;20.0;;
53939;SDS011;39850;43.324;21.916;2024-03-06T04:12:32;22.0;;;20.0;;
53939;SDS011;39850;43.324;21.916;2024-03-06T04:17:08;22.0;;;20.0;;
53939;SDS011;39850;43.324;21.916;2024-03-06T04:21:44;22.0;;;20.0;;
53939;SDS011;39850;43.324;21.916;2024-03-06T04:26:21;23.0;;;21.0;;
53939;SDS011;39850;43.324;21.916;2024-03-06T04:30:57;23.0;;;21.0;;
53939;SDS011;39850;43.324;21.916;2024-03-06T04:35:33;24.0;;;22.0;;
53939;SDS011;39850;43.324;21.916;2024-03-06T04:40:11;24.0;;;22.0;;
53939;SDS011;39850;43.324;21.916;2024-03-06T04:44:48;26.0;;;23.0;;
53939;SDS011;39850;43.324;21.916;2024-03-06T04:49:25;26.0;;;23.0;;
53939;SDS011;39850;43.324;21.916;2024-03-06T04:54:02;28.0;;;24.0;;
53939;SDS011;39850;43.324;21.916;2024-03-06T04:58:39;28.0;;;24.0;;
53939;SDS011;39850;43.324;21.916;2024-03-06T05:35:28;24.0;;;21.0;;
53939;SDS011;39850;43.324;21.916;2024-03-06T05:40:09;24.0;;;21.0;;
53939;SDS011;39850;43.324;21.916;2024-03-06T05:44:46;26.0;;;22.0;;
53939;SDS011;39850;43.324;21.916;2024-03-06T05:49:22;26.0;;;22.0;;
53939;SDS011;39850;43.324;21.916;2024-03-06T05:53:58;29.0;;;22.0;;
53939;SDS011;39850;43.324;21.916;2024-03-06T05:58:34;29.0;;;22.0;;
53939;SDS011;39850;43.324;21.916;2024-03-06T06:03:11;31.0;;;23.0;;
53939;SDS011;39850;43.324;21.916;2024-03-06T06:07:47;31.0;;;23.0;;
53939;SDS011;39850;43.324;21.916;2024-03-06T06:12:23;31.0;;;23.0;;
53939;SDS011;39850;43.324;21.916;2024-03-06T06:16:59;33.0;;;24.0;;
53939;SDS011;39850;43.324;21.916;2024-03-06T06:21:36;33.0;;;24.0;;
53939;SDS011;39850;43.324;21.916;2024-03-06T06:53:53;39.0;;;30.0;;
53939;SDS011;39850;43.324;21.916;2024-03-06T06:58:30;39.0;;;30.0;;
53939;SDS011;39850;43.324;21.916;2024-03-06T07:03:06;38.0;;;30.0;;
53939;SDS011;39850;43.324;21.916;2024-03-06T07:07:43;38.0;;;30.0;;
53939;SDS011;39850;43.324;21.916;2024-03-06T07:12:19;38.0;;;30.0;;
53939;SDS011;39850;43.324;21.916;2024-03-06T07:16:55;36.0;;;30.0;;
53939;SDS011;39850;43.324;21.916;2024-03-06T07:21:31;36.0;;;30.0;;
53939;SDS011;39850;43.324;21.916;2024-03-06T07:26:07;36.0;;;30.0;;
53939;SDS011;39850;43.324;21.916;2024-03-06T07:30:43;36.0;;;30.0;;
53939;SDS011;39850;43.324;21.916;2024-03-06T07:35:20;36.0;;;31.0;;
53939;SDS011;39850;43.324;21.916;2024-03-06T07:39:56;36.0;;;31.0;;
53939;SDS011;39850;43.324;21.916;2024-03-06T08:16:46;28.0;;;23.0;;
53939;SDS011;39850;43.324;21.916;2024-03-06T08:21:22;28.0;;;23.0;;
53939;SDS011;39850;43.324;21.916;2024-03-06T08:25:59;28.0;;;24.0;;
53939;SDS011;39850;43.324;21.916;2024-03-06T08:30:35;28.0;;;24.0;;
53939;SDS011;39850;43.324;21.916;2024-03-06T08:35:13;27.0;;;24.0;;
53939;SDS011;39850;43.324;21.916;2024-03-06T08:39:50;27.0;;;24.0;;
53939;SDS011;39850;43.324;21.916;2024-03-06T08:44:26;26.0;;;24.0;;
53939;SDS011;39850;43.324;21.916;2024-03-06T08:49:03;26.0;;;24.0;;
53939;SDS011;39850;43.324;21.916;2024-03-06T08:53:40;26.0;;;24.0;;
53939;SDS011;39850;43.324;21.916;2024-03-06T08:58:16;26.0;;;24.0;;
53939;SDS011;39850;43.324;21.916;2024-03-06T09:02:54;26.0;;;24.0;;
53939;SDS011;39850;43.324;21.916;2024-03-06T09:35:11;32.0;;;27.0;;
53939;SDS011;39850;43.324;21.916;2024-03-06T09:39:48;32.0;;;27.0;;
53939;SDS011;39850;43.324;21.916;2024-03-06T09:44:24;32.0;;;27.0;;
53939;SDS011;39850;43.324;21.916;2024-03-06T09:49:03;32.0;;;27.0;;
53939;SDS011;39850;43.324;21.916;2024-03-06T09:53:42;32.0;;;27.0;;
53939;SDS011;39850;43.324;21.916;2024-03-06T09:58:19;32.0;;;27.0;;
53939;SDS011;39850;43.324;21.916;2024-03-06T10:03:01;32.0;;;27.0;;
53939;SDS011;39850;43.324;21.916;2024-03-06T10:07:39;31.0;;;27.0;;
53939;SDS011;39850;43.324;21.916;2024-03-06T10:12:18;31.0;;;27.0;;
53939;SDS011;39850;43.324;21.916;2024-03-06T10:16:59;31.0;;;27.0;;
53939;SDS011;39850;43.324;21.916;2024-03-06T10:21:36;31.0;;;27.0;;
53939;SDS011;39850;43.324;21.916;2024-03-06T10:54:26;34.0;;;31.0;;
53939;SDS011;39850;43.324;21.916;2024-03-06T10:59:07;34.0;;;31.0;;
53939;SDS011;39850;43.324;21.916;2024-03-06T11:03:48;32.0;;;29.0;;
53939;SDS011;39850;43.324;21.916;2024-03-06T11:08:26;32.0;;;29.0;;
53939;SDS011;39850;43.324;21.916;2024-03-06T11:13:22;32.0;;;29.0;;
53939;SDS011;39850;43.324;21.916;2024-03-06T11:18:43;31.0;;;29.0;;
53939;SDS011;39850;43.324;21.916;2024-03-06T11:23:20;31.0;;;29.0;;
53939;SDS011;39850;43.324;21.916;2024-03-06T11:28:06;31.0;;;28.0;;
53939;SDS011;39850;43.324;21.916;2024-03-06T11:32:58;31.0;;;28.0;;
53939;SDS011;39850;43.324;21.916;2024-03-06T11:37:36;31.0;;;29.0;;
53939;SDS011;39850;43.324;21.916;2024-03-06T11:42:14;31.0;;;29.0;;
53939;SDS011;39850;43.324;21.916;2024-03-06T12:14:36;23.0;;;21.0;;
53939;SDS011;39850;43.324;21.916;2024-03-06T12:19:13;23.0;;;21.0;;
53939;SDS011;39850;43.324;21.916;2024-03-06T12:23:49;23.0;;;21.0;;
53939;SDS011;39850;43.324;21.916;2024-03-06T12:28:25;22.0;;;21.0;;
53939;SDS011;39850;43.324;21.916;2024-03-06T12:33:04;22.0;;;21.0;;
53939;SDS011;39850;43.324;21.916;2024-03-06T12:37:40;22.0;;;21.0;;
53939;SDS011;39850;43.324;21.916;2024-03-06T12:42:16;22.0;;;21.0;;
53939;SDS011;39850;43.324;21.916;2024-03-06T12:46:52;22.0;;;20.0;;
53939;SDS011;39850;43.324;21.916;2024-03-06T12:51:28;22.0;;;20.0;;
53939;SDS011;39850;43.324;21.916;2024-03-06T12:56:07;22.0;;;20.0;;
53939;SDS011;39850;43.324;21.916;2024-03-06T13:00:45;22.0;;;20.0;;
53939;SDS011;39850;43.324;21.916;2024-03-06T13:37:39;19.0;;;17.0;;
53939;SDS011;39850;43.324;21.916;2024-03-06T13:42:15;19.0;;;17.0;;
53939;SDS011;39850;43.324;21.916;2024-03-06T13:46:51;18.0;;;17.0;;
53939;SDS011;39850;43.324;21.916;2024-03-06T13:51:28;18.0;;;17.0;;
53939;SDS011;39850;43.324;21.916;2024-03-06T13:56:07;18.0;;;17.0;;
53939;SDS011;39850;43.324;21.916;2024-03-06T14:00:44;18.0;;;17.0;;
53939;SDS011;39850;43.324;21.916;2024-03-06T14:05:20;18.0;;;16.0;;
53939;SDS011;39850;43.324;21.916;2024-03-06T14:09:57;18.0;;;16.0;;
53939;SDS011;39850;43.324;21.916;2024-03-06T14:14:34;18.0;;;16.0;;
53939;SDS011;39850;43.324;21.916;2024-03-06T14:19:11;18.0;;;16.0;;
53939;SDS011;39850;43.324;21.916;2024-03-06T14:23:48;18.0;;;16.0;;
53939;SDS011;39850;43.324;21.916;2024-03-06T14:56:02;18.0;;;16.0;;
53939;SDS011;39850;43.324;21.916;2024-03-06T15:00:39;18.0;;;16.0;;
53939;SDS011;39850;43.324;21.916;2024-03-06T15:05:15;18.0;;;16.0;;
53939;SDS011;39850;43.324;21.916;2024-03-06T15:09:53;18.0;;;16.0;;
53939;SDS011;39850;43.324;21.916;2024-03-06T15:14:29;18.0;;;16.0;;
53939;SDS011;39850;43.324;21.916;2024-03-06T15:19:06;18.0;;;16.0;;
53939;SDS011;39850;43.324;21.916;2024-03-06T15:23:42;18.0;;;16.0;;
53939;SDS011;39850;43.324;21.916;2024-03-06T15:28:18;18.0;;;16.0;;
53939;SDS011;39850;43.324;21.916;2024-03-06T15:32:54;18.0;;;16.0;;
53939;SDS011;39850;43.324;21.916;2024-03-06T15:37:31;18.0;;;16.0;;
53939;SDS011;39850;43.324;21.916;2024-03-06T15:42:07;18.0;;;16.0;;
53939;SDS011;39850;43.324;21.916;2024-03-06T16:18:57;27.0;;;23.0;;
53939;SDS011;39850;43.324;21.916;2024-03-06T16:23:33;27.0;;;23.0;;
53939;SDS011;39850;43.324;21.916;2024-03-06T16:28:09;27.0;;;23.0;;
53939;SDS011;39850;43.324;21.916;2024-03-06T16:32:46;27.0;;;23.0;;
53939;SDS011;39850;43.324;21.916;2024-03-06T16:37:22;25.0;;;22.0;;
53939;SDS011;39850;43.324;21.916;2024-03-06T16:41:59;25.0;;;22.0;;
53939;SDS011;39850;43.324;21.916;2024-03-06T16:46:36;23.0;;;22.0;;
53939;SDS011;39850;43.324;21.916;2024-03-06T16:51:18;23.0;;;22.0;;
53939;SDS011;39850;43.324;21.916;2024-03-06T16:55:55;23.0;;;22.0;;
53939;SDS011;39850;43.324;21.916;2024-03-06T17:00:31;23.0;;;22.0;;
53939;SDS011;39850;43.324;21.916;2024-03-06T17:37:25;27.0;;;24.0;;
53939;SDS011;39850;43.324;21.916;2024-03-06T17:42:02;27.0;;;24.0;;
53939;SDS011;39850;43.324;21.916;2024-03-06T17:46:38;26.0;;;24.0;;
53939;SDS011;39850;43.324;21.916;2024-03-06T17:51:15;26.0;;;24.0;;
53939;SDS011;39850;43.324;21.916;2024-03-06T17:55:51;25.0;;;23.0;;
53939;SDS011;39850;43.324;21.916;2024-03-06T18:00:27;25.0;;;23.0;;
53939;SDS011;39850;43.324;21.916;2024-03-06T18:05:05;24.0;;;23.0;;
53939;SDS011;39850;43.324;21.916;2024-03-06T18:09:42;24.0;;;23.0;;
53939;SDS011;39850;43.324;21.916;2024-03-06T18:14:18;24.0;;;23.0;;
53939;SDS011;39850;43.324;21.916;2024-03-06T18:18:54;24.0;;;23.0;;
53939;SDS011;39850;43.324;21.916;2024-03-06T18:23:30;24.0;;;23.0;;
53939;SDS011;39850;43.324;21.916;2024-03-06T18:55:43;43.0;;;40.0;;
53939;SDS011;39850;43.324;21.916;2024-03-06T19:00:21;43.0;;;40.0;;
53939;SDS011;39850;43.324;21.916;2024-03-06T19:04:57;43.0;;;40.0;;
53939;SDS011;39850;43.324;21.916;2024-03-06T19:09:34;36.0;;;34.0;;
53939;SDS011;39850;43.324;21.916;2024-03-06T19:14:10;36.0;;;34.0;;
53939;SDS011;39850;43.324;21.916;2024-03-06T19:18:49;34.0;;;32.0;;
53939;SDS011;39850;43.324;21.916;2024-03-06T19:23:25;34.0;;;32.0;;
53939;SDS011;39850;43.324;21.916;2024-03-06T19:28:02;32.0;;;30.0;;
53939;SDS011;39850;43.324;21.916;2024-03-06T19:32:40;32.0;;;30.0;;
53939;SDS011;39850;43.324;21.916;2024-03-06T19:37:17;34.0;;;32.0;;
53939;SDS011;39850;43.324;21.916;2024-03-06T19:41:53;34.0;;;32.0;;
53939;SDS011;39850;43.324;21.916;2024-03-06T20:18:45;25.0;;;24.0;;
53939;SDS011;39850;43.324;21.916;2024-03-06T20:23:21;25.0;;;24.0;;
53939;SDS011;39850;43.324;21.916;2024-03-06T20:27:58;26.0;;;26.0;;
53939;SDS011;39850;43.324;21.916;2024-03-06T20:32:34;26.0;;;26.0;;
53939;SDS011;39850;43.324;21.916;2024-03-06T20:37:10;27.0;;;27.0;;
53939;SDS011;39850;43.324;21.916;2024-03-06T20:41:46;27.0;;;27.0;;
53939;SDS011;39850;43.324;21.916;2024-03-06T20:46:23;30.0;;;30.0;;
53939;SDS011;39850;43.324;21.916;2024-03-06T20:50:59;30.0;;;30.0;;
53939;SDS011;39850;43.324;21.916;2024-03-06T20:55:35;33.0;;;32.0;;
53939;SDS011;39850;43.324;21.916;2024-03-06T21:00:13;33.0;;;32.0;;
53939;SDS011;39850;43.324;21.916;2024-03-06T21:04:49;33.0;;;32.0;;
53939;SDS011;39850;43.324;21.916;2024-03-06T21:37:04;39.0;;;37.0;;
53939;SDS011;39850;43.324;21.916;2024-03-06T21:41:41;39.0;;;37.0;;
53939;SDS011;39850;43.324;21.916;2024-03-06T21:46:18;38.0;;;37.0;;
53939;SDS011;39850;43.324;21.916;2024-03-06T21:50:55;38.0;;;37.0;;
53939;SDS011;39850;43.324;21.916;2024-03-06T21:55:33;38.0;;;37.0;;
53939;SDS011;39850;43.324;21.916;2024-03-06T22:00:15;39.0;;;37.0;;
53939;SDS011;39850;43.324;21.916;2024-03-06T22:04:53;39.0;;;37.0;;
53939;SDS011;39850;43.324;21.916;2024-03-06T22:09:30;38.0;;;38.0;;
53939;SDS011;39850;43.324;21.916;2024-03-06T22:14:08;38.0;;;38.0;;
53939;SDS011;39850;43.324;21.916;2024-03-06T22:18:44;40.0;;;38.0;;
53939;SDS011;39850;43.324;21.916;2024-03-06T22:23:20;40.0;;;38.0;;
53939;SDS011;39850;43.324;21.916;2024-03-06T23:00:12;34.0;;;33.0;;
53939;SDS011;39850;43.324;21.916;2024-03-06T23:04:49;34.0;;;33.0;;
53939;SDS011;39850;43.324;21.916;2024-03-06T23:09:25;34.0;;;33.0;;
53939;SDS011;39850;43.324;21.916;2024-03-06T23:14:02;34.0;;;33.0;;
53939;SDS011;39850;43.324;21.916;2024-03-06T23:18:38;34.0;;;33.0;;
53939;SDS011;39850;43.324;21.916;2024-03-06T23:23:14;34.0;;;33.0;;
53939;SDS011;39850;43.324;21.916;2024-03-06T23:27:50;36.0;;;35.0;;
53939;SDS011;39850;43.324;21.916;2024-03-06T23:32:26;36.0;;;35.0;;
53939;SDS011;39850;43.324;21.916;2024-03-06T23:37:03;38.0;;;37.0;;
53939;SDS011;39850;43.324;21.916;2024-03-06T23:41:40;38.0;;;37.0;;
